• Join FlightAware (Why Join?)
  • Login
  • US Flag 
02:39AM EDT


 

Airport Tracker/Info


-or-


 

Live Flight TrackerFlight Track Log ✈ SWA1668 ✈ 08-May-2013 ✈ KOAK - KSLC

Flight Track Log - Related Links

Times and Time Zones

All times are in EDT time to prevent confusion due to time zone crossing. See the SWA1668 flight status page for this flight to view local times or setup timezone preferences in your user account.

Time Position Orientation Groundspeed Altitude Reporting Facility
EDT Latitude Longitude Course Direction KTS MPH feet Rate Location/Type
10:48PM 37.7167 -122.2500 310° West 155 178 1,100  Level Northern Cal TRACON
10:49PM 37.7500 -122.3000 310° West 202 232 3,100 1,800 Climbing Northern Cal TRACON
10:50PM 37.7933 -122.3006 359° North 229 264 4,400 2,760 Climbing Oakland Center
10:51PM 37.8486 -122.2397 41° Northeast 262 302 8,200 3,360 Climbing Oakland Center
10:52PM 37.9067 -122.1733 42° Northeast 277 319 11,300 3,000 Climbing Oakland Center
10:53PM 37.9911 -122.0764 42° Northeast 345 397 14,400 3,060 Climbing Oakland Center
10:54PM 38.0669 -121.9878 43° Northeast 369 425 17,600 3,060 Climbing Oakland Center
10:55PM 38.1464 -121.8956 42° Northeast 383 441 20,700 2,760 Climbing Oakland Center
10:56PM 38.2150 -121.7917 50° Northeast 388 447 23,300 2,340 Climbing Oakland Center
10:57PM 38.2614 -121.6592 66° East 410 472 25,500 2,040 Climbing Oakland Center
10:58PM 38.3094 -121.5253 65° Northeast 416 479 27,500 1,980 Climbing Oakland Center
10:59PM 38.3631 -121.3758 65° Northeast 429 494 29,600 2,160 Climbing Oakland Center
11:00PM 38.4111 -121.2392 66° East 431 496 32,000 2,280 Climbing Oakland Center
11:01PM 38.4569 -121.1092 66° East 416 479 34,300 1,920 Climbing Oakland Center
11:02PM 38.5028 -120.9797 66° East 405 466 36,000 1,140 Climbing Oakland Center
11:03PM 38.5483 -120.8500 66° East 406 467 36,700 480 Climbing Oakland Center
11:04PM 38.5964 -120.7122 66° East 424 488 37,000 120 Climbing Oakland Center
11:06PM 38.6536 -120.5456 66° East 427 491 37,000  Level Oakland Center
11:07PM 38.7017 -120.4067 66° East 427 491 37,000  Level Oakland Center
11:08PM 38.7478 -120.2706 66° East 419 482 37,000  Level Oakland Center
11:09PM 38.7969 -120.1350 65° Northeast 421 484 37,000  Level Oakland Center
11:10PM 38.8447 -119.9983 66° East 422 486 37,000  Level Oakland Center
11:11PM 38.8942 -119.8647 65° Northeast 415 478 37,000 120 Level Oakland Center
11:12PM 38.9458 -119.7242 65° Northeast 418 481 37,300 600 Climbing Oakland Center
11:13PM 38.9958 -119.5836 65° Northeast 431 496 38,300 780 Climbing Oakland Center
11:14PM 39.0467 -119.4444 65° Northeast 430 495 39,000 300 Climbing Oakland Center
11:15PM 39.0964 -119.3047 65° Northeast 429 494 39,000  Level Oakland Center
11:16PM 39.1475 -119.1653 65° Northeast 430 495 39,000  Level Oakland Center
11:17PM 39.1975 -119.0264 65° Northeast 429 494 39,000  Level Oakland Center
11:18PM 39.2558 -118.8636 65° Northeast 432 497 39,000  Level Oakland Center
11:19PM 39.3064 -118.7225 65° Northeast 434 499 39,000  Level Oakland Center
11:20PM 39.3561 -118.5797 66° East 436 502 39,000  Level Oakland Center
11:21PM 39.4069 -118.4350 66° East 439 505 39,000  Level Oakland Center
11:22PM 39.4561 -118.2978 65° Northeast 441 507 39,000  Level Oakland Center
11:23PM 39.5067 -118.1525 66° East 444 511 39,000  Level Oakland Center
11:24PM 39.5561 -118.0103 66° East 438 504 39,000  Level Oakland Center
11:25PM 39.6042 -117.8694 66° East 430 495 39,000  Level Oakland Center
11:26PM 39.6536 -117.7275 66° East 431 496 39,000  Level Oakland Center
11:27PM 39.7106 -117.5575 66° East 429 494 39,000  Level Oakland Center
11:28PM 39.7558 -117.4236 66° East 427 491 39,000  Level Oakland Center
11:29PM 39.8019 -117.2897 66° East 424 488 39,000  Level Salt Lake Center
11:30PM 39.8467 -117.1564 66° East 422 486 39,000  Level Salt Lake Center
11:31PM 39.8989 -117.0017 66° East 423 487 39,000  Level Oakland Center
11:32PM 39.9433 -116.8675 67° East 424 488 39,000  Level Oakland Center
11:33PM 39.9950 -116.7106 67° East 425 489 39,000  Level Oakland Center
11:34PM 40.0397 -116.5750 67° East 427 491 39,000  Level Oakland Center
11:35PM 40.0922 -116.4161 67° East 429 494 39,000  Level Oakland Center
11:36PM 40.1369 -116.2767 67° East 432 497 39,000  Level Salt Lake Center
11:37PM 40.1833 -116.1392 66° East 433 498 39,000  Level Salt Lake Center
11:38PM 40.2278 -115.9978 68° East 441 507 39,000  Level Salt Lake Center
11:39PM 40.2803 -115.8342 67° East 439 505 39,000  Level Salt Lake Center
11:40PM 40.3278 -115.6944 66° East 440 506 39,000  Level Salt Lake Center
11:41PM 40.3789 -115.5336 67° East 433 498 39,000  Level Salt Lake Center
11:42PM 40.4231 -115.3964 67° East 429 494 39,000  Level Salt Lake Center
11:43PM 40.4656 -115.2589 68° East 426 490 39,000  Level Salt Lake Center
11:44PM 40.5131 -115.0981 69° East 424 488 39,000  Level Salt Lake Center
11:45PM 40.5583 -114.9608 66° East 427 491 39,000  Level Salt Lake Center
11:46PM 40.6028 -114.8222 67° East 427 491 39,000  Level Salt Lake Center
11:47PM 40.6533 -114.6531 68° East 430 495 39,000  Level Salt Lake Center
11:48PM 40.6969 -114.5053 69° East 433 498 39,000  Level Salt Lake Center
11:49PM 40.7058 -114.3467 86° East 436 502 39,000 -360 Level Salt Lake Center
11:50PM 40.7114 -114.1883 87° East 436 502 38,300 -1,680 Descending Salt Lake Center
11:51PM 40.7175 -114.0333 87° East 429 494 35,600 -2,760 Descending Salt Lake Center
11:52PM 40.7211 -113.8817 88° East 418 481 32,700 -2,580 Descending Salt Lake Center
11:53PM 40.7269 -113.7347 87° East 408 470 30,400 -2,220 Descending Salt Lake Center
11:54PM 40.7264 -113.5911 90° East 395 455 28,300 -2,160 Descending Salt Lake Center
11:55PM 40.7256 -113.4533 90° East 383 441 26,100 -2,280 Descending Salt Lake Center
11:56PM 40.7267 -113.2903 89° East 374 430 23,700 -2,280 Descending Salt Lake Center
11:57PM 40.7236 -113.1511 92° East 380 437 21,500 -2,100 Descending Salt Lake Center
11:58PM 40.7233 -113.0164 90° East 369 425 19,500 -1,980 Descending Salt Lake Center
11:59PM 40.7269 -112.9419 86° East 363 418 18,300 -1,980 Descending Salt Lake Center
11:59PM 40.7225 -112.8875 96° East 355 409 17,500 -1,140 Descending Salt Lake Center
12:00AM 40.7258 -112.7869 87° East 348 400 17,000 -300 Descending Salt Lake Center
12:01AM 40.7222 -112.6442 92° East 343 395 17,000 -300 Level Salt Lake Center
12:02AM 40.7217 -112.5397 90° East 338 389 16,500 -1,320 Descending Salt Lake Center
12:03AM 40.7406 -112.4147 79° East 321 369 14,500 -1,980 Descending Salt Lake Center
12:04AM 40.7581 -112.3044 78° East 316 364 12,600 -1,320 Descending Salt Lake Center
12:05AM 40.7658 -112.2000 84° East 282 325 11,900 -900 Descending Salt Lake Center
12:06AM 40.7567 -112.1094 98° East 239 275 10,900 -1,200 Descending Salt Lake Center
12:07AM 40.6956 -112.0822 161° South 263 303 9,600 -1,320 Descending Salt Lake Center
12:08AM 40.6344 -112.0461 156° South 219 252 8,200 -1,200 Descending Salt Lake Center
12:10AM 40.6514 -111.9783 72° East 167 192 7,000 -1,200 Descending Salt Lake Center
12:10AM 40.6872 -111.9633 18° North 159 183 5,800 -1,080 Descending Salt Lake Center
12:11AM 40.7261 -111.9642 359° North 153 176 5,100 -840 Descending Salt Lake Center
12:12AM 40.7692 -111.9639 360° North 155 178 4,300 -840 Descending Salt Lake Center
12:14AM 40.7833 -111.9667 349° North  Level FlightAware Approximate
12:21AM 40.7884 -111.9778 349° North  Level Estimated